createdAt,value
2023-03-25T00:03:18.409Z,98774.56
2023-03-25T00:12:52.197Z,98788.43
2023-03-25T00:22:24.175Z,98782.73
2023-03-25T00:31:59.821Z,98796.30
2023-03-25T00:41:31.973Z,98791.77
2023-03-25T00:51:05.712Z,98784.03
2023-03-25T01:00:39.330Z,98774.47
2023-03-25T01:10:13.322Z,98773.00
2023-03-25T01:19:47.617Z,98767.00
2023-03-25T01:29:21.796Z,98769.66
2023-03-25T01:38:57.792Z,98762.07
2023-03-25T01:48:31.598Z,98756.08
2023-03-25T01:58:05.040Z,98745.14
2023-03-25T02:07:37.256Z,98728.55
2023-03-25T02:17:11.149Z,98710.30
2023-03-25T02:26:44.718Z,98693.97
2023-03-25T02:36:19.937Z,98690.97
2023-03-25T02:45:52.451Z,98705.72
2023-03-25T02:55:25.893Z,98693.93
2023-03-25T03:05:00.007Z,98689.95
2023-03-25T03:14:34.218Z,98689.60
2023-03-25T03:24:08.140Z,98698.56
2023-03-25T03:33:43.211Z,98699.41
2023-03-25T03:43:14.325Z,98717.16
2023-03-25T03:52:49.727Z,98729.41
2023-03-25T04:02:23.420Z,98747.08
2023-03-25T04:11:54.933Z,98766.91
2023-03-25T04:21:30.630Z,98766.52
2023-03-25T04:31:04.964Z,98775.74
2023-03-25T04:40:37.420Z,98794.88
2023-03-25T04:50:12.706Z,98792.84
2023-03-25T04:59:44.896Z,98798.14
2023-03-25T05:09:20.457Z,98794.72
2023-03-25T05:18:53.701Z,98797.56
2023-03-25T05:28:27.972Z,98807.20
2023-03-25T05:37:59.923Z,98825.16
2023-03-25T05:47:33.346Z,98832.37
2023-03-25T05:57:08.440Z,98840.66
2023-03-25T06:06:40.132Z,98855.03
2023-03-25T06:16:15.786Z,98844.38
2023-03-25T06:25:49.974Z,98852.80
2023-03-25T06:35:22.591Z,98850.17
2023-03-25T06:44:58.178Z,98835.41
2023-03-25T06:54:32.519Z,98824.23
2023-03-25T07:04:06.488Z,98837.17
2023-03-25T07:13:40.709Z,98826.20
2023-03-25T07:23:14.785Z,98829.57
2023-03-25T07:32:46.749Z,98813.19
2023-03-25T07:33:49.174Z,98816.09
2023-03-25T07:34:51.618Z,98816.00
2023-03-25T07:35:54.399Z,98816.25
2023-03-25T07:36:56.521Z,98814.57
2023-03-25T07:38:00.531Z,98819.39
2023-03-25T07:47:32.167Z,98806.47
2023-03-25T07:48:36.248Z,98809.63
2023-03-25T07:49:38.594Z,98810.05
2023-03-25T07:50:40.984Z,98801.50
2023-03-25T07:51:45.071Z,98804.19
2023-03-25T07:52:47.370Z,98808.00
2023-03-25T08:02:20.254Z,98804.02
2023-03-25T08:03:22.771Z,98797.33
2023-03-25T08:04:25.206Z,98797.51
2023-03-25T08:05:29.215Z,98807.05
2023-03-25T08:06:31.589Z,98803.05
2023-03-25T08:07:35.629Z,98807.40
2023-03-25T08:08:39.569Z,98800.95
2023-03-25T08:09:44.379Z,98805.63
2023-03-25T08:10:48.227Z,98803.61
2023-03-25T08:11:50.553Z,98813.33
2023-03-25T08:12:52.932Z,98811.38
2023-03-25T08:13:56.962Z,98814.33
2023-03-25T08:15:00.886Z,98810.19
2023-03-25T08:16:05.121Z,98811.55
2023-03-25T08:17:08.802Z,98804.94
2023-03-25T08:18:11.119Z,98808.91
2023-03-25T08:19:15.069Z,98836.87
2023-03-25T08:20:17.356Z,98814.77
2023-03-25T08:21:21.485Z,98805.47
2023-03-25T08:22:23.761Z,98816.35
2023-03-25T08:23:26.245Z,98812.64
2023-03-25T08:24:28.630Z,98818.02
2023-03-25T08:25:31.057Z,98817.59
2023-03-25T08:26:35.083Z,98811.55
2023-03-25T08:27:37.413Z,98815.55
2023-03-25T08:28:39.821Z,98822.04
2023-03-25T08:29:42.225Z,98818.86
2023-03-25T08:30:46.240Z,98827.91
2023-03-25T08:31:48.643Z,98821.03
2023-03-25T08:32:52.679Z,98824.89
2023-03-25T08:33:56.488Z,98816.80
2023-03-25T08:35:04.365Z,98814.22
2023-03-25T08:36:06.567Z,98805.58
2023-03-25T08:37:08.950Z,98810.19
2023-03-25T08:38:11.369Z,98807.30
2023-03-25T08:39:13.783Z,98817.02
2023-03-25T08:40:16.254Z,98811.31
2023-03-25T08:41:18.691Z,98809.49
2023-03-25T08:42:21.112Z,98811.53
2023-03-25T08:43:23.484Z,98816.44
2023-03-25T08:44:25.887Z,98817.20
2023-03-25T08:45:29.939Z,98811.98
2023-03-25T08:46:32.286Z,98804.45
2023-03-25T08:47:36.322Z,98805.66
2023-03-25T08:48:38.598Z,98800.16
2023-03-25T08:49:41.104Z,98808.78
2023-03-25T08:50:43.491Z,98804.52
2023-03-25T08:51:47.498Z,98796.48
2023-03-25T08:52:51.426Z,98794.70
2023-03-25T08:53:53.745Z,98800.54
2023-03-25T08:54:57.849Z,98801.89
2023-03-25T08:56:01.813Z,98799.83
2023-03-25T09:05:33.124Z,98804.34
2023-03-25T09:06:47.397Z,98804.30
2023-03-25T09:07:39.365Z,98801.58
2023-03-25T09:08:41.846Z,98794.17
2023-03-25T09:09:44.242Z,98796.94
2023-03-25T09:10:46.664Z,98794.80
2023-03-25T09:11:49.180Z,98785.63
2023-03-25T09:12:51.581Z,98783.59
2023-03-25T09:13:55.592Z,98790.64
2023-03-25T09:14:57.907Z,98795.73
2023-03-25T09:16:01.933Z,98786.69
2023-03-25T09:17:04.222Z,98794.42
2023-03-25T09:18:06.663Z,98784.11
2023-03-25T09:19:10.649Z,98782.00
2023-03-25T09:20:14.684Z,98780.67
2023-03-25T09:21:18.579Z,98786.89
2023-03-25T09:22:22.528Z,98806.97
2023-03-25T09:23:27.636Z,98782.92
2023-03-25T09:24:31.304Z,98799.56
2023-03-25T09:25:36.219Z,98784.86
2023-03-25T09:26:41.364Z,98791.31
2023-03-25T09:27:48.507Z,98786.88
2023-03-25T09:28:50.598Z,98790.64
2023-03-25T09:29:53.324Z,98780.09
2023-03-25T09:30:55.562Z,98777.19
2023-03-25T09:31:59.460Z,98785.19
2023-03-25T09:33:01.790Z,98789.03
2023-03-25T09:34:05.687Z,98782.80
2023-03-25T09:35:09.591Z,98791.34
2023-03-25T09:36:11.893Z,98790.77
2023-03-25T09:37:16.927Z,98791.73
2023-03-25T09:38:20.727Z,98800.90
2023-03-25T09:39:23.092Z,98789.91
2023-03-25T09:40:25.492Z,98801.05
2023-03-25T09:41:27.962Z,98810.72
2023-03-25T09:42:32.039Z,98805.48
2023-03-25T09:43:34.322Z,98804.14
2023-03-25T09:44:37.939Z,98817.51
2023-03-25T09:45:40.283Z,98804.06
2023-03-25T09:46:42.837Z,98806.72
2023-03-25T09:47:45.233Z,98802.84
2023-03-25T09:48:49.230Z,98812.14
2023-03-25T09:49:53.197Z,98839.09
2023-03-25T09:50:57.060Z,98835.97
2023-03-25T09:52:01.000Z,98866.36
2023-03-25T10:01:30.193Z,98858.69
2023-03-25T10:02:32.633Z,98860.06
2023-03-25T10:03:35.022Z,98862.45
2023-03-25T10:04:39.008Z,98855.41
2023-03-25T10:05:42.851Z,98850.48
2023-03-25T10:06:45.160Z,98860.44
2023-03-25T10:07:47.707Z,98861.86
2023-03-25T10:08:50.023Z,98858.91
2023-03-25T10:09:52.542Z,98865.30
2023-03-25T10:10:56.500Z,98863.42
2023-03-25T10:11:58.901Z,98861.95
2023-03-25T10:13:02.368Z,98866.05
2023-03-25T10:14:04.981Z,98871.83
2023-03-25T10:15:09.992Z,98864.84
2023-03-25T10:16:13.850Z,98878.56
2023-03-25T10:17:17.048Z,98866.00
2023-03-25T10:18:19.369Z,98858.47
2023-03-25T10:19:23.420Z,98873.83
2023-03-25T10:20:25.739Z,98863.29
2023-03-25T10:21:28.112Z,98864.29
2023-03-25T10:22:36.182Z,98859.81
2023-03-25T10:23:39.998Z,98864.71
2023-03-25T10:24:43.879Z,98856.77
2023-03-25T10:25:46.182Z,98854.17
2023-03-25T10:26:50.271Z,98846.05
2023-03-25T10:27:54.208Z,98857.41
2023-03-25T10:28:56.484Z,98852.66
2023-03-25T10:30:00.544Z,98845.95
2023-03-25T10:31:04.407Z,98848.34
2023-03-25T10:32:09.374Z,98848.47
2023-03-25T10:33:14.161Z,98843.26
2023-03-25T10:34:17.365Z,98841.95
2023-03-25T10:35:22.324Z,98839.66
2023-03-25T10:36:26.226Z,98841.95
2023-03-25T10:37:31.086Z,98839.86
2023-03-25T10:38:33.385Z,98841.73
2023-03-25T10:39:35.847Z,98859.55
2023-03-25T10:40:39.825Z,98838.50
2023-03-25T10:41:42.087Z,98839.06
2023-03-25T10:42:46.134Z,98843.98
2023-03-25T10:43:51.642Z,98840.09
2023-03-25T10:44:55.422Z,98827.69
2023-03-25T10:45:57.934Z,98838.97
2023-03-25T10:47:02.267Z,98829.34
2023-03-25T10:48:04.204Z,98832.88
2023-03-25T10:49:06.479Z,98832.48
2023-03-25T10:50:10.467Z,98828.61
2023-03-25T10:51:14.385Z,98835.00
2023-03-25T10:52:18.348Z,98829.47
2023-03-25T10:53:22.195Z,98822.98
2023-03-25T10:54:27.354Z,98830.30
2023-03-25T10:55:31.208Z,98837.39
2023-03-25T10:56:33.488Z,98824.09
2023-03-25T10:57:36.067Z,98824.39
2023-03-25T10:58:38.538Z,98826.20
2023-03-25T10:59:40.888Z,98833.57
2023-03-25T11:00:44.994Z,98823.26
2023-03-25T11:01:48.315Z,98829.71
2023-03-25T11:02:52.467Z,98822.55
2023-03-25T11:03:54.532Z,98821.73
2023-03-25T11:04:59.606Z,98818.18
2023-03-25T11:06:01.767Z,98826.67
2023-03-25T11:07:04.193Z,98820.10
2023-03-25T11:08:14.920Z,98825.91
2023-03-25T11:09:10.051Z,98824.52
2023-03-25T11:10:12.331Z,98824.13
2023-03-25T11:11:14.824Z,98822.27
2023-03-25T11:12:17.249Z,98826.72
2023-03-25T11:13:23.399Z,98830.33
2023-03-25T11:14:27.284Z,98824.41
2023-03-25T11:15:31.126Z,98840.16
2023-03-25T11:16:35.328Z,98828.77
2023-03-25T11:17:37.922Z,98826.34
2023-03-25T11:18:40.914Z,98828.87
2023-03-25T11:19:42.769Z,98816.00
2023-03-25T11:20:45.193Z,98819.15
2023-03-25T11:21:47.655Z,98818.13
2023-03-25T11:22:50.045Z,98812.05
2023-03-25T11:23:58.198Z,98812.00
2023-03-25T11:25:00.260Z,98811.59
2023-03-25T11:26:02.689Z,98816.34
2023-03-25T11:27:06.149Z,98803.94
2023-03-25T11:28:10.138Z,98810.14
2023-03-25T11:29:14.268Z,98813.17
2023-03-25T11:30:16.485Z,98815.37
2023-03-25T11:31:20.586Z,98810.89
2023-03-25T11:32:24.517Z,98807.32
2023-03-25T11:33:27.834Z,98809.88
2023-03-25T11:34:31.857Z,98815.82
2023-03-25T11:35:35.075Z,98812.09
2023-03-25T11:36:37.422Z,98809.78
2023-03-25T11:37:39.827Z,98807.19
2023-03-25T11:38:42.307Z,98816.31
2023-03-25T11:39:44.744Z,98814.20
2023-03-25T11:40:47.083Z,98814.57
2023-03-25T11:41:49.549Z,98819.67
2023-03-25T11:42:52.061Z,98803.75
2023-03-25T11:43:54.530Z,98818.23
2023-03-25T11:44:56.925Z,98831.04
2023-03-25T11:45:59.426Z,98830.13
2023-03-25T11:47:01.886Z,98806.17
2023-03-25T11:48:04.381Z,98798.39
2023-03-25T11:49:08.380Z,98802.34
2023-03-25T11:50:10.704Z,98804.14
2023-03-25T11:51:13.087Z,98804.91
2023-03-25T11:52:15.559Z,98793.41
2023-03-25T11:53:17.973Z,98796.98
2023-03-25T11:54:20.503Z,98802.30
2023-03-25T11:55:22.921Z,98801.77
2023-03-25T11:56:25.298Z,98797.88
2023-03-25T11:57:28.846Z,98803.11
2023-03-25T11:58:30.171Z,98794.56
2023-03-25T11:59:32.630Z,98792.27
2023-03-25T12:00:36.705Z,98793.94
2023-03-25T12:01:39.066Z,98781.29
2023-03-25T12:02:41.603Z,98781.28
2023-03-25T12:03:45.653Z,98777.86
2023-03-25T12:04:47.967Z,98780.22
2023-03-25T12:05:52.168Z,98785.28
2023-03-25T12:06:54.293Z,98798.02
2023-03-25T12:07:58.307Z,98805.48
2023-03-25T12:09:01.677Z,98800.87
2023-03-25T12:10:07.662Z,98808.52
2023-03-25T12:11:11.527Z,98804.66
2023-03-25T12:12:13.863Z,98798.62
2023-03-25T12:13:16.333Z,98796.52
2023-03-25T12:14:18.777Z,98788.28
2023-03-25T12:15:21.273Z,98791.06
2023-03-25T12:16:24.708Z,98794.05
2023-03-25T12:17:26.987Z,98801.92
2023-03-25T12:18:31.033Z,98807.89
2023-03-25T12:19:35.025Z,98809.34
2023-03-25T12:20:37.333Z,98803.85
2023-03-25T12:21:39.794Z,98800.23
2023-03-25T12:22:42.219Z,98805.02
2023-03-25T12:23:45.145Z,98802.07
2023-03-25T12:33:17.707Z,98814.97
2023-03-25T12:34:20.241Z,98816.77
2023-03-25T12:35:23.677Z,98821.09
2023-03-25T12:36:27.717Z,98833.75
2023-03-25T12:37:33.028Z,98829.08
2023-03-25T12:38:35.191Z,98870.75
2023-03-25T12:39:43.001Z,98877.98
2023-03-25T12:40:40.052Z,98872.89
2023-03-25T12:41:43.996Z,98877.22
2023-03-25T12:42:47.219Z,98871.00
2023-03-25T12:43:49.546Z,98849.80
2023-03-25T12:44:51.996Z,98843.78
2023-03-25T12:45:57.052Z,98848.14
2023-03-25T12:46:59.182Z,98846.85
2023-03-25T12:48:01.716Z,98849.05
2023-03-25T12:49:04.062Z,98843.51
2023-03-25T12:50:06.534Z,98853.50
2023-03-25T12:51:10.365Z,98845.70
2023-03-25T12:52:13.823Z,98839.49
2023-03-25T12:53:16.056Z,98849.50
2023-03-25T12:54:18.506Z,98835.89
2023-03-25T12:55:22.573Z,98841.55
2023-03-25T12:56:25.267Z,98839.86
2023-03-25T12:57:31.796Z,98835.22
2023-03-25T12:58:33.909Z,98824.61
2023-03-25T12:59:36.380Z,98821.36
2023-03-25T13:09:11.579Z,98809.55
2023-03-25T13:10:14.005Z,98817.64
2023-03-25T13:11:16.344Z,98822.45
2023-03-25T13:12:18.821Z,98812.22
2023-03-25T13:13:21.287Z,98812.55
2023-03-25T13:14:25.528Z,98812.95
2023-03-25T13:15:28.112Z,98804.36
2023-03-25T13:16:30.333Z,98818.86
2023-03-25T13:17:33.784Z,98817.37
2023-03-25T13:18:37.201Z,98804.31
2023-03-25T13:19:41.151Z,98807.56
2023-03-25T13:20:45.065Z,98798.58
2023-03-25T13:21:47.452Z,98795.74
2023-03-25T13:22:50.892Z,98828.85
2023-03-25T13:23:54.866Z,98809.95
2023-03-25T13:24:58.767Z,98786.22
2023-03-25T13:26:03.712Z,98793.94
2023-03-25T13:27:08.613Z,98792.30
2023-03-25T13:28:10.850Z,98785.25
2023-03-25T13:29:13.307Z,98775.55
2023-03-25T13:30:15.760Z,98778.14
2023-03-25T13:31:18.276Z,98772.05
2023-03-25T13:32:21.691Z,98782.87
2023-03-25T13:33:26.613Z,98782.64
2023-03-25T13:34:30.481Z,98786.30
2023-03-25T13:35:32.833Z,98779.59
2023-03-25T13:36:35.278Z,98782.13
2023-03-25T13:37:37.790Z,98779.31
2023-03-25T13:38:41.328Z,98775.05
2023-03-25T13:39:45.352Z,98777.58
2023-03-25T13:40:47.663Z,98779.21
2023-03-25T13:41:52.649Z,98767.84
2023-03-25T13:42:55.902Z,98769.61
2023-03-25T13:43:59.345Z,98771.72
2023-03-25T13:45:02.068Z,98771.36
2023-03-25T13:46:04.513Z,98772.47
2023-03-25T13:47:07.578Z,98776.44
2023-03-25T13:48:12.055Z,98785.13
2023-03-25T13:49:14.264Z,98779.35
2023-03-25T13:50:18.232Z,98787.01
2023-03-25T13:51:20.489Z,98774.23
2023-03-25T13:52:22.928Z,98779.94
2023-03-25T13:53:25.475Z,98788.55
2023-03-25T13:54:31.701Z,98782.69
2023-03-25T13:55:33.939Z,98786.05
2023-03-25T13:56:36.645Z,98794.52
2023-03-25T13:57:44.765Z,98779.38
2023-03-25T13:58:46.851Z,98790.47
2023-03-25T13:59:50.882Z,98782.48
2023-03-25T14:00:55.206Z,98793.69
2023-03-25T14:01:57.357Z,98788.80
2023-03-25T14:03:00.816Z,98786.37
2023-03-25T14:04:03.263Z,98798.70
2023-03-25T14:05:05.972Z,98796.55
2023-03-25T14:06:08.418Z,98784.52
2023-03-25T14:07:11.881Z,98777.86
2023-03-25T14:08:14.214Z,98787.33
2023-03-25T14:09:18.394Z,98801.67
2023-03-25T14:10:22.330Z,98789.36
2023-03-25T14:11:24.888Z,98796.30
2023-03-25T14:12:27.245Z,98795.99
2023-03-25T14:13:32.415Z,98791.36
2023-03-25T14:14:34.640Z,98782.41
2023-03-25T14:15:38.681Z,98798.83
2023-03-25T14:16:42.608Z,98793.66
2023-03-25T14:17:46.710Z,98787.14
2023-03-25T14:18:49.283Z,98792.93
2023-03-25T14:19:51.700Z,98817.88
2023-03-25T14:20:55.305Z,98792.05
2023-03-25T14:21:56.907Z,98806.65
2023-03-25T14:23:00.988Z,98804.54
2023-03-25T14:24:03.443Z,98805.81
2023-03-25T14:25:05.947Z,98799.53
2023-03-25T14:26:08.830Z,98802.39
2023-03-25T14:27:12.908Z,98798.73
2023-03-25T14:28:15.176Z,98808.50
2023-03-25T14:29:19.251Z,98813.72
2023-03-25T14:30:25.049Z,98809.02
2023-03-25T14:31:27.222Z,98800.00
2023-03-25T14:32:31.115Z,98814.16
2023-03-25T14:33:33.531Z,98805.24
2023-03-25T14:34:35.905Z,98803.48
2023-03-25T14:35:38.524Z,98810.64
2023-03-25T14:36:42.463Z,98822.24
2023-03-25T14:37:44.771Z,98797.17
2023-03-25T14:38:47.636Z,98806.86
2023-03-25T14:39:50.096Z,98798.50
2023-03-25T14:49:22.083Z,98789.75
2023-03-25T14:50:24.520Z,98796.63
2023-03-25T14:51:27.244Z,98792.09
2023-03-25T14:52:29.642Z,98789.95
2023-03-25T14:53:32.074Z,98789.06
2023-03-25T14:54:36.024Z,98790.97
2023-03-25T14:55:39.912Z,98803.30
2023-03-25T14:56:43.829Z,98795.20
2023-03-25T14:57:46.325Z,98791.75
2023-03-25T14:58:48.785Z,98800.59
2023-03-25T14:59:51.208Z,98808.20
2023-03-25T15:00:53.658Z,98806.86
2023-03-25T15:01:56.132Z,98813.97
2023-03-25T15:03:00.286Z,98801.45
2023-03-25T15:04:05.240Z,98804.06
2023-03-25T15:05:09.039Z,98822.17
2023-03-25T15:06:11.370Z,98805.67
2023-03-25T15:07:13.853Z,98811.47
2023-03-25T15:08:16.245Z,98813.19
2023-03-25T15:09:18.722Z,98816.17
2023-03-25T15:10:21.341Z,98808.67
2023-03-25T15:11:23.734Z,98797.98
2023-03-25T15:12:26.215Z,98813.91
2023-03-25T15:13:30.422Z,98797.97
2023-03-25T15:14:32.578Z,98801.89
2023-03-25T15:15:35.059Z,98805.51
2023-03-25T15:16:39.361Z,98804.28
2023-03-25T15:17:41.689Z,98793.77
2023-03-25T15:18:44.060Z,98781.55
2023-03-25T15:19:48.184Z,98796.44
2023-03-25T15:20:50.599Z,98805.31
2023-03-25T15:21:54.565Z,98815.47
2023-03-25T15:22:58.499Z,98798.67
2023-03-25T15:24:00.815Z,98792.66
2023-03-25T15:25:03.306Z,98796.91
2023-03-25T15:26:05.808Z,98805.23
2023-03-25T15:27:08.252Z,98799.02
2023-03-25T15:28:10.742Z,98794.03
2023-03-25T15:29:13.289Z,98793.42
2023-03-25T15:30:15.735Z,98777.59
2023-03-25T15:31:18.248Z,98790.09
2023-03-25T15:32:20.666Z,98781.64
2023-03-25T15:33:24.728Z,98790.14
2023-03-25T15:34:28.574Z,98785.66
2023-03-25T15:35:31.256Z,98775.91
2023-03-25T15:36:33.520Z,98782.27
2023-03-25T15:37:45.484Z,98783.98
2023-03-25T15:38:41.519Z,98784.72
2023-03-25T15:39:43.841Z,98794.92
2023-03-25T15:40:46.272Z,98787.92
2023-03-25T15:41:48.727Z,98784.58
2023-03-25T15:42:52.750Z,98790.14
2023-03-25T15:44:00.381Z,98788.78
2023-03-25T15:44:59.301Z,98803.49
2023-03-25T15:46:03.458Z,98794.47
2023-03-25T15:47:05.512Z,98799.71
2023-03-25T15:48:07.935Z,98792.58
2023-03-25T15:49:10.779Z,98799.21
2023-03-25T15:50:13.396Z,98783.66
2023-03-25T15:51:17.972Z,98798.27
2023-03-25T15:52:20.900Z,98806.33
2023-03-25T15:53:25.851Z,98797.41
2023-03-25T15:54:25.105Z,98809.11
2023-03-25T15:55:27.777Z,98809.35
2023-03-25T15:56:30.799Z,98786.48
2023-03-25T15:57:32.962Z,98804.28
2023-03-25T15:58:35.485Z,98791.48
2023-03-25T15:59:39.872Z,98792.81
2023-03-25T16:00:44.085Z,98799.95
2023-03-25T16:01:47.808Z,98801.91
2023-03-25T16:02:50.736Z,98806.63
2023-03-25T16:03:53.512Z,98801.45
2023-03-25T16:04:55.783Z,98804.00
2023-03-25T16:05:59.754Z,98813.38
2023-03-25T16:07:02.049Z,98818.28
2023-03-25T16:08:04.579Z,98808.59
2023-03-25T16:09:06.949Z,98806.70
2023-03-25T16:10:10.977Z,98811.77
2023-03-25T16:11:13.273Z,98799.52
2023-03-25T16:12:17.492Z,98800.42
2023-03-25T16:13:20.207Z,98803.45
2023-03-25T16:14:22.513Z,98796.38
2023-03-25T16:15:25.188Z,98811.22
2023-03-25T16:16:27.753Z,98810.43
2023-03-25T16:17:31.580Z,98806.88
2023-03-25T16:18:34.167Z,98805.75
2023-03-25T16:19:36.357Z,98807.28
2023-03-25T16:20:40.361Z,98806.84
2023-03-25T16:21:44.289Z,98818.84
2023-03-25T16:22:48.197Z,98813.88
2023-03-25T16:23:50.452Z,98805.89
2023-03-25T16:24:53.011Z,98807.35
2023-03-25T16:25:57.027Z,98805.22
2023-03-25T16:26:59.379Z,98802.01
2023-03-25T16:28:01.946Z,98817.43
2023-03-25T16:29:04.446Z,98802.99
2023-03-25T16:30:06.909Z,98801.77
2023-03-25T16:31:10.987Z,98807.36
2023-03-25T16:32:13.265Z,98802.31
2023-03-25T16:33:15.755Z,98804.14
2023-03-25T16:34:19.796Z,98806.10
2023-03-25T16:35:22.127Z,98804.69
2023-03-25T16:36:26.174Z,98808.36
2023-03-25T16:37:28.489Z,98800.88
2023-03-25T16:38:31.124Z,98800.85
2023-03-25T16:39:35.148Z,98801.80
2023-03-25T16:40:37.458Z,98809.11
2023-03-25T16:41:41.478Z,98814.73
2023-03-25T16:42:43.808Z,98808.38
2023-03-25T16:43:46.204Z,98816.92
2023-03-25T16:44:48.625Z,98799.20
2023-03-25T16:45:51.031Z,98807.95
2023-03-25T16:46:53.428Z,98809.55
2023-03-25T16:47:57.487Z,98806.22
2023-03-25T16:48:59.791Z,98806.81
2023-03-25T16:50:02.179Z,98816.20
2023-03-25T16:51:04.639Z,98804.23
2023-03-25T16:52:08.693Z,98812.66
2023-03-25T16:53:11.104Z,98806.81
2023-03-25T16:54:15.330Z,98803.88
2023-03-25T16:55:17.617Z,98805.92
2023-03-25T16:56:20.022Z,98813.97
2023-03-25T16:57:22.481Z,98808.55
2023-03-25T16:58:24.949Z,98815.77
2023-03-25T16:59:29.458Z,98806.86
2023-03-25T17:00:31.674Z,98803.48
2023-03-25T17:01:34.111Z,98811.38
2023-03-25T17:02:36.591Z,98801.59
2023-03-25T17:03:40.550Z,98799.45
2023-03-25T17:04:44.472Z,98803.91
2023-03-25T17:05:46.746Z,98805.30
2023-03-25T17:06:50.770Z,98802.67
2023-03-25T17:07:53.076Z,98800.23
2023-03-25T17:08:55.489Z,98805.36
2023-03-25T17:09:57.954Z,98808.58
2023-03-25T17:11:00.341Z,98812.16
2023-03-25T17:12:02.794Z,98807.64
2023-03-25T17:13:05.263Z,98802.09
2023-03-25T17:14:07.734Z,98811.09
2023-03-25T17:15:10.247Z,98813.55
2023-03-25T17:16:14.664Z,98813.44
2023-03-25T17:17:16.973Z,98815.36
2023-03-25T17:18:19.443Z,98816.74
2023-03-25T17:19:23.594Z,98815.97
2023-03-25T17:20:25.785Z,98825.52
2023-03-25T17:21:28.246Z,98826.89
2023-03-25T17:22:30.708Z,98827.02
2023-03-25T17:23:34.742Z,98840.21
2023-03-25T17:24:38.708Z,98839.48
2023-03-25T17:25:41.051Z,98851.38
2023-03-25T17:26:45.087Z,98884.50
2023-03-25T17:27:49.258Z,98880.16
2023-03-25T17:28:51.483Z,98872.30
2023-03-25T17:29:53.944Z,98876.64
2023-03-25T17:30:56.368Z,98882.17
2023-03-25T17:32:00.359Z,98877.05
2023-03-25T17:33:02.669Z,98886.80
2023-03-25T17:34:06.673Z,98897.58
2023-03-25T17:35:09.022Z,98896.06
2023-03-25T17:36:11.504Z,98906.40
2023-03-25T17:37:13.824Z,98905.28
2023-03-25T17:38:16.385Z,98899.41
2023-03-25T17:39:20.338Z,98894.53
2023-03-25T17:40:24.212Z,98906.48
2023-03-25T17:41:28.126Z,98914.52
2023-03-25T17:42:30.444Z,98910.77
2023-03-25T17:43:32.853Z,98905.41
2023-03-25T17:44:35.677Z,98909.47
2023-03-25T17:45:37.878Z,98906.23
2023-03-25T17:46:40.475Z,98916.38
2023-03-25T17:56:11.037Z,98919.05
2023-03-25T17:57:16.136Z,98922.27
2023-03-25T18:06:47.477Z,98929.19
2023-03-25T18:16:20.673Z,98925.33
2023-03-25T18:17:24.908Z,98921.67
2023-03-25T18:26:56.450Z,98937.92
2023-03-25T18:36:27.235Z,98948.52
2023-03-25T18:46:00.888Z,98947.27
2023-03-25T18:55:34.653Z,98949.38
2023-03-25T19:05:08.437Z,98960.70
2023-03-25T19:14:43.642Z,98973.65
2023-03-25T19:24:15.878Z,98978.89
2023-03-25T19:33:49.406Z,98975.99
2023-03-25T19:43:23.411Z,98982.38
2023-03-25T19:52:57.033Z,98981.17
2023-03-25T20:02:30.881Z,98981.80
2023-03-25T20:12:04.161Z,98982.94
2023-03-25T20:21:38.062Z,98964.98
2023-03-25T20:31:11.642Z,98963.79
2023-03-25T20:40:47.065Z,98947.55
2023-03-25T20:50:20.668Z,98947.78
2023-03-25T20:59:52.761Z,98954.72
2023-03-25T21:09:28.332Z,98959.11
2023-03-25T21:19:00.394Z,98963.21
2023-03-25T21:28:34.258Z,98974.34
2023-03-25T21:38:08.112Z,98973.84
2023-03-25T21:47:41.738Z,98995.52
2023-03-25T21:57:17.214Z,99001.80
2023-03-25T22:06:49.141Z,99007.86
2023-03-25T22:16:23.115Z,99015.42
2023-03-25T22:25:58.107Z,99006.43
2023-03-25T22:35:30.501Z,99013.00
2023-03-25T22:45:06.225Z,99018.23
2023-03-25T22:54:38.699Z,99031.83
2023-03-25T23:04:14.180Z,99030.08
2023-03-25T23:13:46.365Z,99028.02
2023-03-25T23:23:20.092Z,99019.77
2023-03-25T23:32:55.318Z,99024.52
2023-03-25T23:42:34.644Z,99029.55
2023-03-25T23:52:00.304Z,99022.45
